createdAt,value
2022-08-17T00:00:42.789Z,24.59
2022-08-17T00:03:13.654Z,24.54
2022-08-17T00:05:48.587Z,24.50
2022-08-17T00:08:23.586Z,24.44
2022-08-17T00:10:53.925Z,24.39
2022-08-17T00:13:30.896Z,24.34
2022-08-17T00:16:03.288Z,24.32
2022-08-17T00:19:01.979Z,24.30
2022-08-17T00:21:25.274Z,24.28
2022-08-17T00:23:54.598Z,24.25
2022-08-17T00:26:34.492Z,24.18
2022-08-17T00:29:19.416Z,24.13
2022-08-17T00:31:48.901Z,24.08
2022-08-17T00:34:18.874Z,24.06
2022-08-17T00:36:46.754Z,24.03
2022-08-17T00:39:14.581Z,24.03
2022-08-17T00:41:42.858Z,24.01
2022-08-17T00:44:12.140Z,23.95
2022-08-17T00:46:45.369Z,23.95
2022-08-17T00:49:15.899Z,23.94
2022-08-17T00:51:53.821Z,23.93
2022-08-17T00:54:28.559Z,23.93
2022-08-17T00:57:04.503Z,23.92
2022-08-17T00:59:44.261Z,23.88
2022-08-17T01:02:15.584Z,23.84
2022-08-17T01:04:46.179Z,23.80
2022-08-17T01:07:16.566Z,23.78
2022-08-17T01:09:44.566Z,23.80
2022-08-17T01:12:13.027Z,23.76
2022-08-17T01:14:41.551Z,23.76
2022-08-17T01:17:11.040Z,23.75
2022-08-17T01:19:42.602Z,23.74
2022-08-17T01:22:22.226Z,23.67
2022-08-17T01:24:56.389Z,23.69
2022-08-17T01:27:24.414Z,23.68
2022-08-17T01:30:00.360Z,23.63
2022-08-17T01:32:30.428Z,23.61
2022-08-17T01:35:00.697Z,23.62
2022-08-17T01:37:35.456Z,23.60
2022-08-17T01:40:09.366Z,23.60
2022-08-17T01:42:44.679Z,23.62
2022-08-17T01:45:18.340Z,23.63
2022-08-17T01:47:46.413Z,23.61
2022-08-17T01:50:18.834Z,23.60
2022-08-17T01:52:53.610Z,23.59
2022-08-17T01:55:30.938Z,23.54
2022-08-17T01:57:59.002Z,23.50
2022-08-17T02:00:28.147Z,23.38
2022-08-17T02:03:16.656Z,23.30
2022-08-17T02:05:45.197Z,23.26
2022-08-17T02:08:20.399Z,23.15
2022-08-17T02:10:50.087Z,23.16
2022-08-17T02:13:20.016Z,23.18
2022-08-17T02:15:47.966Z,23.18
2022-08-17T02:18:16.309Z,23.17
2022-08-17T02:20:44.425Z,23.11
2022-08-17T02:23:14.764Z,23.05
2022-08-17T02:25:48.500Z,22.97
2022-08-17T02:28:18.897Z,22.91
2022-08-17T02:31:01.517Z,22.86
2022-08-17T02:33:43.275Z,22.82
2022-08-17T02:36:13.395Z,22.70
2022-08-17T02:38:43.544Z,22.61
2022-08-17T02:41:13.753Z,22.55
2022-08-17T02:43:41.833Z,22.50
2022-08-17T02:46:11.045Z,22.47
2022-08-17T02:48:39.917Z,22.45
2022-08-17T02:51:08.255Z,22.43
2022-08-17T02:53:36.481Z,22.36
2022-08-17T02:56:06.461Z,22.30
2022-08-17T02:58:35.844Z,22.27
2022-08-17T03:01:05.966Z,22.26
2022-08-17T03:03:35.145Z,22.24
2022-08-17T03:06:05.482Z,22.25
2022-08-17T03:08:34.093Z,22.30
2022-08-17T03:11:02.045Z,22.33
2022-08-17T03:13:31.891Z,22.34
2022-08-17T03:15:59.768Z,22.36
2022-08-17T03:18:28.059Z,22.35
2022-08-17T03:21:00.451Z,22.36
2022-08-17T03:23:29.592Z,22.37
2022-08-17T03:26:00.275Z,22.34
2022-08-17T03:28:28.762Z,22.32
2022-08-17T03:30:58.420Z,22.29
2022-08-17T03:33:26.238Z,22.25
2022-08-17T03:35:54.568Z,22.26
2022-08-17T03:38:23.256Z,22.27
2022-08-17T03:40:57.472Z,22.26
2022-08-17T03:43:32.169Z,22.23
2022-08-17T03:46:26.982Z,22.22
2022-08-17T03:49:21.676Z,22.24
2022-08-17T03:52:08.467Z,22.24
2022-08-17T03:54:55.240Z,22.21
2022-08-17T03:57:23.292Z,22.14
2022-08-17T03:59:52.776Z,22.14
2022-08-17T04:02:28.455Z,22.15
2022-08-17T04:04:56.881Z,22.13
2022-08-17T04:07:29.187Z,22.16
2022-08-17T04:09:58.082Z,22.19
2022-08-17T04:12:30.821Z,22.21
2022-08-17T04:14:59.600Z,22.26
2022-08-17T04:17:30.840Z,22.28
2022-08-17T04:19:58.648Z,22.29
2022-08-17T04:22:30.310Z,22.29
2022-08-17T04:25:09.681Z,22.34
2022-08-17T04:27:38.840Z,22.38
2022-08-17T04:30:08.825Z,22.44
2022-08-17T04:33:05.526Z,22.42
2022-08-17T04:35:38.651Z,22.40
2022-08-17T04:38:09.460Z,22.36
2022-08-17T04:40:56.277Z,22.31
2022-08-17T04:43:29.399Z,22.35
2022-08-17T04:46:00.683Z,22.36
2022-08-17T04:48:36.338Z,22.36
2022-08-17T04:51:10.363Z,22.45
2022-08-17T04:53:40.459Z,22.53
2022-08-17T04:56:11.725Z,22.55
2022-08-17T04:58:48.027Z,22.56
2022-08-17T05:01:23.599Z,22.58
2022-08-17T05:03:56.477Z,22.60
2022-08-17T05:06:25.349Z,22.62
2022-08-17T05:08:55.112Z,22.66
2022-08-17T05:11:26.427Z,22.65
2022-08-17T05:13:56.689Z,22.67
2022-08-17T05:16:28.738Z,22.65
2022-08-17T05:18:59.190Z,22.67
2022-08-17T05:21:27.963Z,22.70
2022-08-17T05:23:58.640Z,22.70
2022-08-17T05:26:29.297Z,22.74
2022-08-17T05:29:00.610Z,22.75
2022-08-17T05:31:32.085Z,22.89
2022-08-17T05:34:01.415Z,22.92
2022-08-17T05:36:42.368Z,23.01
2022-08-17T05:39:16.892Z,23.02
2022-08-17T05:41:47.666Z,23.10
2022-08-17T05:44:17.231Z,23.17
2022-08-17T05:46:51.659Z,23.31
2022-08-17T05:49:27.660Z,23.40
2022-08-17T05:52:24.092Z,23.67
2022-08-17T05:55:10.455Z,23.76
2022-08-17T05:57:53.592Z,23.95
2022-08-17T06:00:31.170Z,24.19
2022-08-17T06:03:25.830Z,24.30
2022-08-17T06:06:25.380Z,24.33
2022-08-17T06:09:34.212Z,24.59
2022-08-17T06:12:23.638Z,24.67
2022-08-17T06:15:12.722Z,24.74
2022-08-17T06:18:01.975Z,24.98
2022-08-17T06:20:41.215Z,25.07
2022-08-17T06:23:18.228Z,25.18
2022-08-17T06:25:52.264Z,25.21
2022-08-17T06:28:29.230Z,25.31
2022-08-17T06:31:12.896Z,25.36
2022-08-17T06:33:42.651Z,25.49
2022-08-17T06:36:31.991Z,25.47
2022-08-17T06:39:23.596Z,25.33
2022-08-17T06:42:05.475Z,25.41
2022-08-17T06:44:47.576Z,25.55
2022-08-17T06:47:28.445Z,25.53
2022-08-17T06:50:15.339Z,25.54
2022-08-17T06:52:56.109Z,25.55
2022-08-17T06:55:38.315Z,25.43
2022-08-17T06:58:16.095Z,25.51
2022-08-17T07:00:47.782Z,25.72
2022-08-17T07:03:39.645Z,25.96
2022-08-17T07:06:14.597Z,26.15
2022-08-17T07:08:53.666Z,26.29
2022-08-17T07:11:30.675Z,26.53
2022-08-17T07:14:17.127Z,27.04
2022-08-17T07:16:50.633Z,27.41
2022-08-17T07:19:22.668Z,27.64
2022-08-17T07:22:01.157Z,27.93
2022-08-17T07:24:39.332Z,28.15
2022-08-17T07:27:15.089Z,28.32
2022-08-17T07:29:51.239Z,28.47
2022-08-17T07:32:26.305Z,28.44
2022-08-17T07:35:22.963Z,28.56
2022-08-17T07:38:24.820Z,28.72
2022-08-17T07:41:07.172Z,28.70
2022-08-17T07:43:47.830Z,28.68
2022-08-17T07:46:39.007Z,29.03
2022-08-17T07:49:24.291Z,29.40
2022-08-17T07:52:47.522Z,29.65
2022-08-17T07:54:56.125Z,29.96
2022-08-17T07:57:35.177Z,29.88
2022-08-17T08:00:19.728Z,30.16
2022-08-17T08:03:21.800Z,29.91
2022-08-17T08:06:02.034Z,29.92
2022-08-17T08:08:41.381Z,30.06
2022-08-17T08:11:15.107Z,29.95
2022-08-17T08:13:45.535Z,29.94
2022-08-17T08:16:29.611Z,30.03
2022-08-17T08:19:02.415Z,30.00
2022-08-17T08:21:56.403Z,29.93
2022-08-17T08:24:59.114Z,29.88
2022-08-17T08:27:44.393Z,29.84
2022-08-17T08:30:15.929Z,29.71
2022-08-17T08:33:10.604Z,29.80
2022-08-17T08:35:51.388Z,29.58
2022-08-17T08:38:37.126Z,29.79
2022-08-17T08:41:26.326Z,29.96
2022-08-17T08:44:08.363Z,30.09
2022-08-17T08:46:46.944Z,30.08
2022-08-17T08:52:53.990Z,30.27
2022-08-17T08:55:35.458Z,30.09
2022-08-17T08:58:36.246Z,30.05
2022-08-17T09:01:15.669Z,30.12
2022-08-17T09:04:24.821Z,29.99
2022-08-17T09:07:12.910Z,30.17
2022-08-17T09:09:59.394Z,30.39
2022-08-17T09:12:39.287Z,30.49
2022-08-17T09:15:17.598Z,30.47
2022-08-17T09:18:21.265Z,30.80
2022-08-17T09:20:53.190Z,31.23
2022-08-17T09:23:34.180Z,31.48
2022-08-17T09:26:11.854Z,31.80
2022-08-17T09:28:49.285Z,32.13
2022-08-17T09:31:24.021Z,32.70
2022-08-17T09:33:54.391Z,33.17
2022-08-17T09:36:29.301Z,33.58
2022-08-17T09:39:06.324Z,33.92
2022-08-17T09:41:49.238Z,34.12
2022-08-17T09:44:35.840Z,34.09
2022-08-17T09:47:15.184Z,34.27
2022-08-17T09:49:48.387Z,34.47
2022-08-17T09:52:21.902Z,34.59
2022-08-17T09:54:57.569Z,34.26
2022-08-17T09:57:50.412Z,34.07
2022-08-17T10:00:27.462Z,34.27
2022-08-17T10:03:26.505Z,34.45
2022-08-17T10:06:08.219Z,34.70
2022-08-17T10:08:46.678Z,34.73
2022-08-17T10:11:48.268Z,34.66
2022-08-17T10:14:37.723Z,34.54
2022-08-17T10:17:24.583Z,34.81
2022-08-17T10:20:06.569Z,34.96
2022-08-17T10:23:05.469Z,34.48
2022-08-17T10:26:00.685Z,34.29
2022-08-17T10:28:39.429Z,33.77
2022-08-17T10:34:52.478Z,33.16
2022-08-17T10:37:48.932Z,33.18
2022-08-17T10:40:34.234Z,33.18
2022-08-17T10:43:26.823Z,33.24
2022-08-17T10:46:30.562Z,33.24
2022-08-17T10:49:29.335Z,33.19
2022-08-17T10:52:00.700Z,33.14
2022-08-17T10:55:07.883Z,33.19
2022-08-17T10:57:41.764Z,33.43
2022-08-17T11:00:52.592Z,33.53
2022-08-17T11:03:26.129Z,33.55
2022-08-17T11:06:13.990Z,33.64
2022-08-17T11:09:14.593Z,33.86
2022-08-17T11:12:02.762Z,33.75
2022-08-17T11:14:54.764Z,33.68
2022-08-17T11:17:53.445Z,33.63
2022-08-17T11:21:03.502Z,33.40
2022-08-17T11:24:01.400Z,33.43
2022-08-17T11:26:33.993Z,33.47
2022-08-17T11:29:09.158Z,33.52
2022-08-17T11:31:43.486Z,33.39
2022-08-17T11:34:21.185Z,33.42
2022-08-17T11:37:15.732Z,33.49
2022-08-17T11:40:13.476Z,33.65
2022-08-17T11:43:25.569Z,33.68
2022-08-17T11:46:16.842Z,33.86
2022-08-17T11:49:20.751Z,33.88
2022-08-17T11:52:37.307Z,33.75
2022-08-17T11:55:33.861Z,33.91
2022-08-17T11:58:26.501Z,33.86
2022-08-17T12:00:58.617Z,33.90
2022-08-17T12:03:53.821Z,33.64
2022-08-17T12:06:45.415Z,33.70
2022-08-17T12:09:24.428Z,33.74
2022-08-17T12:12:13.224Z,33.66
2022-08-17T12:15:09.741Z,33.58
2022-08-17T12:17:43.051Z,33.37
2022-08-17T12:20:22.013Z,33.24
2022-08-17T12:23:03.969Z,33.31
2022-08-17T12:25:40.766Z,33.17
2022-08-17T12:28:26.707Z,33.18
2022-08-17T12:31:01.490Z,33.12
2022-08-17T12:33:29.862Z,33.11
2022-08-17T12:36:05.776Z,33.09
2022-08-17T12:38:37.619Z,33.11
2022-08-17T12:41:28.525Z,33.10
2022-08-17T12:44:04.423Z,33.06
2022-08-17T12:46:51.457Z,33.13
2022-08-17T12:49:27.373Z,33.11
2022-08-17T12:52:17.617Z,33.20
2022-08-17T12:54:55.664Z,32.93
2022-08-17T12:57:33.379Z,32.83
2022-08-17T13:00:10.900Z,32.58
2022-08-17T13:02:46.351Z,32.37
2022-08-17T13:05:35.931Z,32.13
2022-08-17T13:08:16.174Z,31.78
2022-08-17T13:10:56.451Z,31.58
2022-08-17T13:13:31.611Z,31.47
2022-08-17T13:16:03.416Z,31.42
2022-08-17T13:18:51.727Z,31.11
2022-08-17T13:21:30.536Z,30.86
2022-08-17T13:24:02.138Z,30.78
2022-08-17T13:26:37.546Z,30.36
2022-08-17T13:29:20.758Z,30.45
2022-08-17T13:31:56.385Z,30.45
2022-08-17T13:35:11.814Z,30.22
2022-08-17T13:37:34.519Z,30.12
2022-08-17T13:40:32.146Z,29.84
2022-08-17T13:43:00.199Z,29.99
2022-08-17T13:45:43.395Z,29.99
2022-08-17T13:48:26.718Z,30.10
2022-08-17T13:51:20.249Z,30.35
2022-08-17T13:54:00.532Z,30.39
2022-08-17T13:56:39.534Z,30.41
2022-08-17T13:59:13.626Z,30.42
2022-08-17T14:01:52.801Z,30.51
2022-08-17T14:04:26.414Z,30.91
2022-08-17T14:06:59.544Z,31.34
2022-08-17T14:09:37.042Z,31.50
2022-08-17T14:12:19.682Z,32.03
2022-08-17T14:14:49.481Z,32.34
2022-08-17T14:17:19.431Z,32.77
2022-08-17T14:19:48.071Z,33.42
2022-08-17T14:22:23.657Z,34.04
2022-08-17T14:24:51.909Z,34.13
2022-08-17T14:27:21.523Z,34.24
2022-08-17T14:29:49.372Z,34.13
2022-08-17T14:32:26.886Z,33.74
2022-08-17T14:34:57.545Z,33.53
2022-08-17T14:37:27.996Z,33.59
2022-08-17T14:39:59.767Z,33.63
2022-08-17T14:42:33.007Z,33.55
2022-08-17T14:45:06.147Z,33.74
2022-08-17T14:47:55.266Z,34.15
2022-08-17T14:50:23.758Z,34.76
2022-08-17T14:52:52.262Z,35.26
2022-08-17T14:55:21.499Z,34.80
2022-08-17T14:57:49.527Z,35.01
2022-08-17T15:00:18.060Z,34.76
2022-08-17T15:02:53.592Z,34.42
2022-08-17T15:05:27.353Z,34.62
2022-08-17T15:07:56.717Z,34.40
2022-08-17T15:10:25.859Z,34.83
2022-08-17T15:12:56.090Z,34.98
2022-08-17T15:15:24.415Z,34.85
2022-08-17T15:17:52.556Z,34.83
2022-08-17T15:20:27.816Z,34.90
2022-08-17T15:22:58.647Z,34.11
2022-08-17T15:25:30.242Z,33.29
2022-08-17T15:28:00.759Z,32.81
2022-08-17T15:30:30.658Z,32.38
2022-08-17T15:33:00.759Z,31.93
2022-08-17T15:35:33.854Z,31.61
2022-08-17T15:38:11.264Z,31.10
2022-08-17T15:40:43.091Z,30.61
2022-08-17T15:43:14.737Z,30.26
2022-08-17T15:45:42.960Z,29.84
2022-08-17T15:48:11.302Z,29.72
2022-08-17T15:50:41.174Z,29.39
2022-08-17T15:53:10.403Z,29.19
2022-08-17T15:55:43.022Z,29.04
2022-08-17T15:58:10.912Z,28.81
2022-08-17T16:00:52.966Z,28.85
2022-08-17T16:03:59.273Z,28.85
2022-08-17T16:06:13.651Z,29.05
2022-08-17T16:08:44.512Z,29.25
2022-08-17T16:11:15.064Z,29.69
2022-08-17T16:13:54.538Z,30.04
2022-08-17T16:16:23.709Z,30.08
2022-08-17T16:18:54.528Z,29.93
2022-08-17T16:21:42.728Z,29.91
2022-08-17T16:24:13.655Z,29.78
2022-08-17T16:26:43.236Z,29.43
2022-08-17T16:29:11.582Z,29.29
2022-08-17T16:31:40.545Z,28.99
2022-08-17T16:34:18.025Z,28.88
2022-08-17T16:36:55.221Z,28.78
2022-08-17T16:39:27.287Z,28.51
2022-08-17T16:41:56.525Z,28.50
2022-08-17T16:44:27.367Z,28.51
2022-08-17T16:46:55.878Z,28.36
2022-08-17T16:49:36.918Z,28.26
2022-08-17T16:52:10.379Z,28.28
2022-08-17T16:54:43.445Z,28.24
2022-08-17T16:57:14.282Z,28.15
2022-08-17T16:59:47.812Z,28.16
2022-08-17T17:02:24.849Z,28.05
2022-08-17T17:05:03.225Z,27.97
2022-08-17T17:07:53.438Z,27.82
2022-08-17T17:10:28.340Z,27.60
2022-08-17T17:13:02.745Z,27.51
2022-08-17T17:15:46.266Z,27.48
2022-08-17T17:18:16.869Z,27.35
2022-08-17T17:20:55.294Z,27.39
2022-08-17T17:23:40.571Z,27.48
2022-08-17T17:26:48.298Z,27.56
2022-08-17T17:29:46.491Z,27.50
2022-08-17T17:32:25.458Z,27.52
2022-08-17T17:35:11.736Z,27.41
2022-08-17T17:37:44.762Z,27.23
2022-08-17T17:40:22.918Z,27.28
2022-08-17T17:42:55.309Z,27.25
2022-08-17T17:45:31.200Z,27.01
2022-08-17T17:47:59.170Z,27.12
2022-08-17T17:50:38.358Z,27.16
2022-08-17T17:53:18.544Z,27.26
2022-08-17T17:56:06.957Z,27.08
2022-08-17T17:59:01.499Z,27.24
2022-08-17T18:01:48.743Z,27.14
2022-08-17T18:04:26.612Z,27.15
2022-08-17T18:07:19.393Z,26.92
2022-08-17T18:10:29.506Z,26.94
2022-08-17T18:13:16.463Z,26.61
2022-08-17T18:15:54.056Z,26.47
2022-08-17T18:18:37.638Z,26.42
2022-08-17T18:21:19.587Z,26.37
2022-08-17T18:23:57.796Z,26.37
2022-08-17T18:26:45.082Z,26.31
2022-08-17T18:29:32.333Z,26.30
2022-08-17T18:32:19.341Z,26.32
2022-08-17T18:34:51.600Z,26.23
2022-08-17T18:37:49.018Z,26.17
2022-08-17T18:40:32.647Z,26.07
2022-08-17T18:43:09.159Z,26.16
2022-08-17T18:45:45.801Z,26.27
2022-08-17T18:48:30.191Z,26.23
2022-08-17T18:51:21.158Z,26.21
2022-08-17T18:54:14.123Z,26.18
2022-08-17T18:56:48.176Z,26.17
2022-08-17T18:59:29.008Z,26.11
2022-08-17T19:05:24.733Z,25.99
2022-08-17T19:07:53.247Z,25.88
2022-08-17T19:10:28.700Z,25.57
2022-08-17T19:13:12.765Z,25.53
2022-08-17T19:16:13.955Z,25.50
2022-08-17T19:18:46.184Z,25.49
2022-08-17T19:21:31.310Z,25.51
2022-08-17T19:24:12.050Z,25.50
2022-08-17T19:26:54.532Z,25.44
2022-08-17T19:29:32.270Z,25.37
2022-08-17T19:32:02.525Z,25.31
2022-08-17T19:34:34.977Z,25.27
2022-08-17T19:37:27.178Z,25.24
2022-08-17T19:40:24.387Z,25.25
2022-08-17T19:43:10.576Z,25.18
2022-08-17T19:45:58.171Z,25.08
2022-08-17T19:48:51.374Z,24.83
2022-08-17T19:51:33.919Z,24.71
2022-08-17T19:54:15.034Z,24.62
2022-08-17T19:56:56.447Z,24.53
2022-08-17T19:59:48.875Z,24.47
2022-08-17T20:02:33.555Z,24.40
2022-08-17T20:05:13.352Z,24.34
2022-08-17T20:07:54.082Z,24.31
2022-08-17T20:10:36.436Z,24.23
2022-08-17T20:13:14.900Z,24.26
2022-08-17T20:15:47.067Z,24.06
2022-08-17T20:18:24.747Z,24.04
2022-08-17T20:21:00.504Z,23.97
2022-08-17T20:23:50.518Z,23.90
2022-08-17T20:26:26.419Z,23.80
2022-08-17T20:29:49.626Z,23.68
2022-08-17T20:32:28.584Z,23.61
2022-08-17T20:35:19.680Z,23.59
2022-08-17T20:37:57.354Z,23.50
2022-08-17T20:40:35.150Z,23.48
2022-08-17T20:43:51.002Z,23.43
2022-08-17T20:46:41.392Z,23.40
2022-08-17T20:49:30.585Z,23.36
2022-08-17T20:52:07.572Z,23.36
2022-08-17T20:54:48.238Z,23.38
2022-08-17T20:57:48.756Z,23.38
2022-08-17T21:00:50.063Z,23.51
2022-08-17T21:03:49.192Z,23.39
2022-08-17T21:06:25.617Z,23.51
2022-08-17T21:09:18.633Z,23.56
2022-08-17T21:12:05.513Z,23.45
2022-08-17T21:14:57.983Z,23.39
2022-08-17T21:17:42.137Z,23.43
2022-08-17T21:20:32.328Z,23.40
2022-08-17T21:23:37.259Z,23.35
2022-08-17T21:26:31.179Z,23.31
2022-08-17T21:29:31.547Z,23.31
2022-08-17T21:32:23.709Z,23.30
2022-08-17T21:35:28.839Z,23.16
2022-08-17T21:38:04.862Z,23.22
2022-08-17T21:40:34.350Z,23.18
2022-08-17T21:43:24.028Z,23.22
2022-08-17T21:46:01.964Z,23.06
2022-08-17T21:48:41.992Z,23.15
2022-08-17T21:51:22.733Z,23.17
2022-08-17T21:53:56.912Z,23.00
2022-08-17T21:56:30.845Z,22.85
2022-08-17T21:59:05.338Z,22.80
2022-08-17T22:01:38.626Z,22.67
2022-08-17T22:04:20.685Z,22.70
2022-08-17T22:06:57.111Z,22.61
2022-08-17T22:09:31.489Z,22.56
2022-08-17T22:12:07.673Z,22.50
2022-08-17T22:14:53.190Z,22.51
2022-08-17T22:17:26.143Z,22.51
2022-08-17T22:19:59.646Z,22.52
2022-08-17T22:22:57.099Z,22.51
2022-08-17T22:25:29.481Z,22.44
2022-08-17T22:28:01.950Z,22.38
2022-08-17T22:30:37.147Z,22.31
2022-08-17T22:33:29.818Z,22.21
2022-08-17T22:36:20.236Z,22.16
2022-08-17T22:38:52.353Z,22.14
2022-08-17T22:41:52.562Z,22.15
2022-08-17T22:44:27.411Z,22.14
2022-08-17T22:47:01.709Z,22.17
2022-08-17T22:49:38.461Z,22.08
2022-08-17T22:52:32.702Z,21.97
2022-08-17T22:55:26.307Z,21.78
2022-08-17T22:58:14.234Z,21.72
2022-08-17T23:00:46.993Z,21.66
2022-08-17T23:03:19.997Z,21.64
2022-08-17T23:06:03.887Z,21.68
2022-08-17T23:08:35.527Z,21.68
2022-08-17T23:11:06.242Z,21.69
2022-08-17T23:13:37.194Z,21.68
2022-08-17T23:16:05.054Z,21.66
2022-08-17T23:18:32.876Z,21.59
2022-08-17T23:21:03.749Z,21.55
2022-08-17T23:23:31.602Z,21.56
2022-08-17T23:25:59.469Z,21.50
2022-08-17T23:28:28.438Z,21.47
2022-08-17T23:30:58.216Z,21.48
2022-08-17T23:33:30.900Z,21.43
2022-08-17T23:35:58.795Z,21.39
2022-08-17T23:38:27.680Z,21.37
2022-08-17T23:40:59.975Z,21.38
2022-08-17T23:43:31.470Z,21.29
2022-08-17T23:46:03.603Z,21.20
2022-08-17T23:48:36.271Z,21.17
2022-08-17T23:51:12.282Z,21.18
2022-08-17T23:53:47.565Z,21.23
2022-08-17T23:56:17.989Z,21.27
2022-08-17T23:58:45.793Z,21.29
